createdAt,value
2022-12-13T00:01:22.603Z,59.70
2022-12-13T00:03:49.396Z,59.50
2022-12-13T00:06:16.417Z,59.70
2022-12-13T00:08:43.269Z,59.70
2022-12-13T00:11:12.947Z,59.90
2022-12-13T00:13:41.656Z,59.90
2022-12-13T00:16:13.000Z,59.90
2022-12-13T00:18:40.341Z,59.90
2022-12-13T00:21:09.756Z,60.40
2022-12-13T00:23:37.059Z,60.20
2022-12-13T00:26:09.772Z,60.40
2022-12-13T00:28:37.483Z,60.10
2022-12-13T00:31:34.227Z,59.80
2022-12-13T00:33:52.374Z,59.70
2022-12-13T00:36:19.602Z,59.40
2022-12-13T00:38:46.375Z,59.50
2022-12-13T00:41:20.413Z,59.40
2022-12-13T00:43:47.288Z,59.30
2022-12-13T00:46:16.693Z,59.20
2022-12-13T00:48:45.181Z,58.70
2022-12-13T00:51:12.503Z,58.60
2022-12-13T00:53:39.347Z,59.30
2022-12-13T00:56:14.634Z,58.50
2022-12-13T00:58:41.672Z,58.40
2022-12-13T01:01:11.062Z,58.80
2022-12-13T01:03:38.071Z,57.90
2022-12-13T01:06:43.041Z,57.70
2022-12-13T01:09:21.413Z,57.50
2022-12-13T01:11:49.139Z,57.50
2022-12-13T01:14:17.078Z,57.50
2022-12-13T01:16:43.871Z,57.50
2022-12-13T01:19:10.692Z,57.50
2022-12-13T01:21:38.530Z,57.20
2022-12-13T01:24:06.594Z,57.10
2022-12-13T01:26:34.000Z,56.90
2022-12-13T01:29:00.803Z,57.00
2022-12-13T01:31:28.122Z,56.90
2022-12-13T01:33:55.090Z,56.80
2022-12-13T01:36:27.753Z,56.30
2022-12-13T01:38:58.082Z,56.70
2022-12-13T01:41:27.580Z,56.70
2022-12-13T01:43:57.740Z,56.80
2022-12-13T01:46:24.797Z,56.80
2022-12-13T01:49:04.191Z,57.20
2022-12-13T01:51:46.397Z,57.20
2022-12-13T01:54:21.208Z,57.20
2022-12-13T01:57:00.914Z,57.00
2022-12-13T01:59:28.500Z,57.00
2022-12-13T02:02:00.702Z,57.10
2022-12-13T02:04:33.823Z,57.10
2022-12-13T02:07:01.183Z,57.20
2022-12-13T02:09:28.683Z,57.10
2022-12-13T02:11:55.927Z,57.20
2022-12-13T02:14:22.676Z,57.20
2022-12-13T02:17:04.240Z,57.10
2022-12-13T02:19:53.254Z,57.30
2022-12-13T02:22:41.416Z,57.20
2022-12-13T02:25:30.039Z,56.90
2022-12-13T02:28:31.266Z,57.00
2022-12-13T02:31:09.395Z,57.00
2022-12-13T02:33:43.221Z,57.40
2022-12-13T02:36:45.127Z,57.70
2022-12-13T02:39:30.430Z,57.60
2022-12-13T02:42:39.784Z,57.80
2022-12-13T02:45:20.246Z,58.30
2022-12-13T02:47:50.936Z,58.70
2022-12-13T02:50:18.252Z,58.50
2022-12-13T02:52:46.702Z,58.60
2022-12-13T02:55:16.252Z,59.10
2022-12-13T02:57:45.258Z,59.40
2022-12-13T03:00:21.297Z,59.60
2022-12-13T03:03:13.191Z,59.50
2022-12-13T03:06:09.635Z,59.30
2022-12-13T03:08:46.771Z,58.90
2022-12-13T03:11:17.673Z,59.20
2022-12-13T03:13:47.516Z,59.30
2022-12-13T03:16:36.388Z,59.50
2022-12-13T03:19:06.906Z,59.70
2022-12-13T03:21:48.113Z,60.80
2022-12-13T03:24:20.281Z,60.50
2022-12-13T03:26:49.328Z,60.60
2022-12-13T03:29:24.345Z,60.90
2022-12-13T03:31:52.676Z,61.00
2022-12-13T03:34:22.411Z,60.80
2022-12-13T03:36:50.667Z,60.60
2022-12-13T03:39:17.559Z,60.70
2022-12-13T03:41:44.345Z,60.90
2022-12-13T03:44:11.161Z,60.90
2022-12-13T03:46:38.591Z,60.70
2022-12-13T03:49:05.399Z,60.40
2022-12-13T03:51:32.246Z,60.50
2022-12-13T03:53:59.006Z,60.50
2022-12-13T03:56:26.312Z,60.20
2022-12-13T03:58:53.153Z,59.90
2022-12-13T04:01:20.111Z,59.50
2022-12-13T04:03:47.700Z,59.60
2022-12-13T04:06:22.534Z,59.80
2022-12-13T04:08:52.311Z,59.40
2022-12-13T04:11:43.256Z,59.70
2022-12-13T04:14:21.685Z,58.70
2022-12-13T04:16:50.935Z,58.60
2022-12-13T04:19:23.364Z,58.40
2022-12-13T04:21:51.985Z,58.50
2022-12-13T04:24:18.822Z,58.20
2022-12-13T04:26:45.884Z,57.80
2022-12-13T04:29:12.920Z,58.10
2022-12-13T04:31:39.667Z,58.40
2022-12-13T04:34:06.563Z,59.10
2022-12-13T04:36:33.646Z,58.80
2022-12-13T04:39:02.179Z,59.20
2022-12-13T04:41:34.518Z,59.30
2022-12-13T04:44:02.344Z,59.60
2022-12-13T04:46:29.404Z,59.70
2022-12-13T04:48:56.374Z,59.50
2022-12-13T04:51:23.230Z,59.40
2022-12-13T04:53:50.589Z,59.30
2022-12-13T04:56:17.384Z,59.30
2022-12-13T04:58:44.326Z,59.60
2022-12-13T05:01:11.816Z,59.70
2022-12-13T05:03:39.296Z,59.80
2022-12-13T05:06:26.381Z,59.80
2022-12-13T05:08:54.612Z,59.70
2022-12-13T05:11:22.821Z,59.50
2022-12-13T05:13:50.045Z,59.40
2022-12-13T05:16:16.881Z,59.60
2022-12-13T05:18:51.556Z,59.60
2022-12-13T05:21:18.306Z,59.70
2022-12-13T05:23:45.056Z,59.50
2022-12-13T05:26:11.846Z,59.60
2022-12-13T05:28:38.662Z,60.00
2022-12-13T05:31:23.339Z,60.00
2022-12-13T05:33:51.679Z,60.00
2022-12-13T05:36:18.633Z,59.90
2022-12-13T05:38:45.691Z,60.00
2022-12-13T05:41:16.817Z,60.40
2022-12-13T05:43:43.860Z,60.50
2022-12-13T05:46:14.402Z,60.70
2022-12-13T05:48:41.632Z,60.80
2022-12-13T05:51:10.194Z,61.00
2022-12-13T05:53:39.825Z,61.50
2022-12-13T05:56:06.910Z,61.80
2022-12-13T05:58:35.757Z,61.60
2022-12-13T06:01:12.882Z,61.70
2022-12-13T06:03:40.717Z,61.90
2022-12-13T06:06:10.467Z,62.10
2022-12-13T06:08:38.011Z,62.10
2022-12-13T06:11:11.709Z,62.40
2022-12-13T06:13:42.688Z,62.40
2022-12-13T06:16:22.678Z,62.50
2022-12-13T06:18:59.014Z,62.30
2022-12-13T06:21:27.958Z,62.50
2022-12-13T06:23:54.961Z,62.90
2022-12-13T06:26:21.716Z,63.10
2022-12-13T06:28:48.462Z,63.60
2022-12-13T06:31:15.260Z,63.90
2022-12-13T06:33:42.160Z,63.70
2022-12-13T06:36:10.220Z,64.00
2022-12-13T06:38:43.170Z,64.00
2022-12-13T06:41:16.697Z,63.90
2022-12-13T06:43:47.721Z,63.70
2022-12-13T06:46:15.696Z,63.70
2022-12-13T06:48:42.602Z,63.20
2022-12-13T06:51:09.991Z,63.10
2022-12-13T06:53:38.257Z,63.50
2022-12-13T06:56:10.021Z,63.60
2022-12-13T06:58:37.035Z,63.40
2022-12-13T07:01:14.864Z,63.40
2022-12-13T07:03:51.549Z,64.30
2022-12-13T07:06:20.490Z,63.60
2022-12-13T07:08:52.985Z,63.70
2022-12-13T07:11:23.260Z,63.80
2022-12-13T07:13:50.631Z,64.30
2022-12-13T07:16:17.532Z,63.90
2022-12-13T07:18:44.800Z,63.90
2022-12-13T07:21:21.637Z,63.90
2022-12-13T07:23:54.878Z,63.90
2022-12-13T07:26:22.449Z,63.70
2022-12-13T07:28:54.824Z,63.10
2022-12-13T07:31:22.917Z,62.80
2022-12-13T07:33:49.991Z,62.90
2022-12-13T07:36:22.189Z,62.90
2022-12-13T07:38:56.868Z,62.80
2022-12-13T07:41:27.057Z,62.50
2022-12-13T07:43:55.855Z,61.20
2022-12-13T07:46:32.546Z,61.40
2022-12-13T07:49:02.140Z,61.30
2022-12-13T07:51:28.990Z,59.20
2022-12-13T07:53:55.747Z,58.50
2022-12-13T07:56:22.485Z,57.90
2022-12-13T07:58:49.287Z,56.60
2022-12-13T08:01:16.042Z,55.80
2022-12-13T08:03:42.770Z,54.90
2022-12-13T08:06:11.710Z,55.20
2022-12-13T08:08:38.699Z,55.10
2022-12-13T08:11:08.778Z,55.10
2022-12-13T08:13:36.288Z,55.00
2022-12-13T08:16:25.752Z,55.00
2022-12-13T08:19:02.756Z,54.20
2022-12-13T08:21:54.545Z,53.40
2022-12-13T08:24:28.193Z,53.60
2022-12-13T08:27:01.373Z,54.00
2022-12-13T08:29:33.925Z,54.60
2022-12-13T08:32:08.579Z,54.40
2022-12-13T08:34:35.424Z,53.70
2022-12-13T08:37:03.989Z,53.60
2022-12-13T08:39:38.370Z,53.00
2022-12-13T08:42:16.389Z,52.60
2022-12-13T08:44:50.048Z,52.40
2022-12-13T08:47:24.778Z,52.50
2022-12-13T08:50:02.921Z,52.80
2022-12-13T08:52:39.745Z,53.30
2022-12-13T08:55:08.577Z,53.00
2022-12-13T08:57:39.286Z,53.30
2022-12-13T09:00:07.584Z,54.30
2022-12-13T09:02:38.164Z,54.70
2022-12-13T09:05:07.209Z,54.00
2022-12-13T09:07:36.082Z,54.10
2022-12-13T09:10:25.348Z,54.30
2022-12-13T09:12:51.308Z,54.20
2022-12-13T09:15:22.432Z,54.90
2022-12-13T09:17:52.832Z,54.90
2022-12-13T09:20:29.560Z,55.30
2022-12-13T09:23:02.056Z,55.60
2022-12-13T09:25:37.411Z,55.30
2022-12-13T09:28:09.582Z,55.70
2022-12-13T09:30:38.344Z,55.60
2022-12-13T09:33:17.889Z,55.60
2022-12-13T09:35:52.565Z,56.00
2022-12-13T09:38:19.467Z,55.10
2022-12-13T09:40:49.857Z,54.80
2022-12-13T09:43:32.031Z,54.70
2022-12-13T09:46:13.266Z,55.20
2022-12-13T09:48:52.299Z,55.70
2022-12-13T09:51:28.666Z,55.40
2022-12-13T09:53:58.685Z,54.00
2022-12-13T09:56:25.530Z,53.40
2022-12-13T09:58:55.430Z,53.00
2022-12-13T10:01:23.654Z,52.40
2022-12-13T10:03:53.842Z,51.50
2022-12-13T10:06:23.564Z,51.40
2022-12-13T10:08:57.195Z,49.80
2022-12-13T10:11:31.229Z,50.40
2022-12-13T10:14:11.777Z,51.40
2022-12-13T10:16:38.501Z,51.70
2022-12-13T10:19:28.810Z,51.00
2022-12-13T10:22:01.902Z,50.60
2022-12-13T10:24:47.320Z,50.20
2022-12-13T10:27:18.123Z,49.30
2022-12-13T10:30:24.559Z,48.30
2022-12-13T10:32:59.063Z,48.80
2022-12-13T10:35:31.174Z,48.10
2022-12-13T10:38:00.483Z,49.80
2022-12-13T10:40:33.646Z,50.00
2022-12-13T10:43:17.386Z,50.30
2022-12-13T10:45:59.376Z,50.10
2022-12-13T10:48:32.067Z,50.20
2022-12-13T10:51:11.004Z,52.00
2022-12-13T10:53:52.614Z,52.10
2022-12-13T10:56:23.949Z,52.30
2022-12-13T10:59:22.792Z,52.50
2022-12-13T11:01:49.508Z,52.10
2022-12-13T11:04:34.392Z,51.40
2022-12-13T11:07:22.033Z,51.70
2022-12-13T11:09:52.601Z,51.70
2022-12-13T11:12:25.747Z,51.60
2022-12-13T11:15:00.418Z,50.00
2022-12-13T11:17:29.967Z,50.00
2022-12-13T11:20:00.516Z,49.60
2022-12-13T11:22:29.964Z,49.90
2022-12-13T11:25:05.976Z,49.90
2022-12-13T11:28:26.939Z,49.90
2022-12-13T11:31:18.138Z,49.30
2022-12-13T11:34:09.380Z,50.00
2022-12-13T11:36:54.362Z,50.10
2022-12-13T11:39:43.289Z,50.50
2022-12-13T11:42:30.519Z,50.70
2022-12-13T11:45:22.324Z,50.40
2022-12-13T11:48:01.853Z,50.20
2022-12-13T11:50:44.851Z,49.50
2022-12-13T11:53:38.930Z,49.40
2022-12-13T11:56:31.701Z,49.50
2022-12-13T11:59:26.546Z,50.00
2022-12-13T12:02:17.897Z,50.20
2022-12-13T12:05:00.479Z,50.40
2022-12-13T12:07:36.186Z,50.70
2022-12-13T12:10:47.388Z,50.70
2022-12-13T12:13:23.447Z,50.30
2022-12-13T12:15:59.647Z,50.00
2022-12-13T12:18:26.657Z,49.70
2022-12-13T12:20:59.528Z,49.80
2022-12-13T12:23:44.340Z,49.50
2022-12-13T12:26:18.373Z,49.70
2022-12-13T12:29:11.980Z,48.90
2022-12-13T12:31:54.525Z,48.70
2022-12-13T12:34:27.355Z,48.90
2022-12-13T12:37:18.283Z,48.10
2022-12-13T12:40:22.464Z,48.20
2022-12-13T12:43:14.969Z,48.90
2022-12-13T12:45:59.034Z,48.60
2022-12-13T12:49:00.581Z,49.30
2022-12-13T12:51:36.877Z,49.70
2022-12-13T12:54:32.175Z,50.30
2022-12-13T12:57:17.745Z,49.70
2022-12-13T13:00:04.071Z,49.20
2022-12-13T13:03:01.408Z,49.80
2022-12-13T13:05:55.792Z,49.40
2022-12-13T13:08:46.726Z,49.90
2022-12-13T13:11:24.026Z,49.40
2022-12-13T13:14:21.328Z,48.40
2022-12-13T13:16:48.223Z,49.00
2022-12-13T13:19:14.904Z,49.90
2022-12-13T13:21:50.746Z,50.00
2022-12-13T13:24:20.841Z,49.90
2022-12-13T13:26:57.823Z,50.00
2022-12-13T13:29:27.945Z,49.70
2022-12-13T13:32:28.385Z,50.20
2022-12-13T13:35:28.713Z,50.80
2022-12-13T13:37:57.185Z,50.80
2022-12-13T13:40:37.440Z,50.00
2022-12-13T13:43:09.788Z,50.00
2022-12-13T13:45:54.495Z,50.50
2022-12-13T13:48:40.426Z,50.40
2022-12-13T13:51:25.854Z,50.60
2022-12-13T13:54:21.398Z,50.50
2022-12-13T13:57:09.900Z,50.50
2022-12-13T14:00:16.180Z,50.60
2022-12-13T14:03:29.254Z,50.20
2022-12-13T14:06:50.812Z,50.50
2022-12-13T14:10:02.721Z,50.80
2022-12-13T14:12:57.007Z,50.70
2022-12-13T14:15:49.852Z,51.40
2022-12-13T14:18:47.212Z,50.40
2022-12-13T14:21:49.472Z,51.30
2022-12-13T14:24:51.582Z,50.60
2022-12-13T14:27:51.963Z,49.50
2022-12-13T14:30:28.052Z,49.70
2022-12-13T14:32:56.817Z,48.70
2022-12-13T14:35:30.984Z,50.00
2022-12-13T14:38:00.565Z,50.30
2022-12-13T14:40:47.166Z,51.40
2022-12-13T14:43:34.095Z,52.10
2022-12-13T14:46:04.112Z,52.40
2022-12-13T14:48:36.216Z,53.40
2022-12-13T14:51:03.379Z,54.10
2022-12-13T14:53:37.378Z,54.30
2022-12-13T14:56:10.711Z,53.30
2022-12-13T14:59:03.998Z,52.60
2022-12-13T15:01:37.053Z,53.00
2022-12-13T15:04:37.882Z,53.10
2022-12-13T15:07:24.728Z,53.50
2022-12-13T15:10:01.369Z,53.40
2022-12-13T15:12:29.925Z,53.40
2022-12-13T15:15:08.439Z,53.80
2022-12-13T15:17:39.973Z,53.00
2022-12-13T15:20:28.537Z,53.50
2022-12-13T15:23:04.423Z,53.70
2022-12-13T15:25:33.970Z,53.90
2022-12-13T15:28:00.916Z,54.30
2022-12-13T15:30:31.803Z,54.10
2022-12-13T15:33:17.770Z,54.30
2022-12-13T15:35:48.040Z,54.70
2022-12-13T15:38:28.650Z,55.00
2022-12-13T15:40:56.942Z,54.90
2022-12-13T15:43:43.098Z,55.60
2022-12-13T15:46:10.203Z,56.00
2022-12-13T15:48:41.695Z,56.40
2022-12-13T15:51:29.104Z,56.70
2022-12-13T15:54:24.149Z,56.70
2022-12-13T15:57:17.599Z,57.00
2022-12-13T15:59:44.632Z,57.50
2022-12-13T16:02:24.471Z,58.20
2022-12-13T16:04:52.100Z,58.30
2022-12-13T16:07:27.212Z,58.70
2022-12-13T16:09:55.315Z,58.80
2022-12-13T16:12:32.263Z,58.90
2022-12-13T16:15:29.211Z,59.30
2022-12-13T16:18:19.467Z,60.10
2022-12-13T16:20:54.198Z,60.40
2022-12-13T16:23:27.028Z,61.10
2022-12-13T16:25:54.669Z,60.40
2022-12-13T16:28:26.008Z,60.20
2022-12-13T16:30:53.052Z,60.70
2022-12-13T16:33:27.897Z,60.30
2022-12-13T16:35:56.043Z,60.00
2022-12-13T16:38:26.932Z,59.70
2022-12-13T16:40:56.377Z,58.90
2022-12-13T16:43:32.802Z,58.50
2022-12-13T16:47:13.210Z,59.30
2022-12-13T16:48:51.124Z,58.90
2022-12-13T16:51:18.364Z,59.10
2022-12-13T16:53:45.832Z,59.50
2022-12-13T16:56:16.323Z,60.00
2022-12-13T16:58:49.601Z,60.60
2022-12-13T17:01:20.206Z,60.70
2022-12-13T17:03:47.437Z,60.60
2022-12-13T17:06:15.993Z,60.60
2022-12-13T17:08:42.763Z,61.50
2022-12-13T17:11:14.566Z,60.70
2022-12-13T17:13:46.917Z,61.00
2022-12-13T17:16:14.192Z,61.60
2022-12-13T17:18:41.152Z,62.30
2022-12-13T17:21:09.425Z,62.40
2022-12-13T17:23:36.513Z,62.70
2022-12-13T17:26:08.250Z,63.00
2022-12-13T17:28:36.522Z,62.40
2022-12-13T17:31:06.458Z,63.00
2022-12-13T17:33:33.533Z,62.90
2022-12-13T17:36:07.857Z,62.70
2022-12-13T17:38:35.310Z,62.30
2022-12-13T17:41:02.638Z,62.50
2022-12-13T17:43:34.807Z,62.80
2022-12-13T17:46:07.844Z,63.00
2022-12-13T17:48:40.480Z,62.30
2022-12-13T17:51:08.954Z,62.00
2022-12-13T17:53:36.995Z,62.00
2022-12-13T17:56:06.598Z,62.90
2022-12-13T17:58:34.403Z,63.20
2022-12-13T18:01:11.690Z,63.40
2022-12-13T18:03:38.629Z,63.40
2022-12-13T18:06:07.167Z,63.80
2022-12-13T18:08:39.092Z,63.60
2022-12-13T18:11:31.668Z,63.50
2022-12-13T18:13:55.508Z,63.20
2022-12-13T18:16:25.300Z,63.30
2022-12-13T18:18:55.923Z,63.40
2022-12-13T18:21:24.715Z,62.80
2022-12-13T18:23:55.453Z,63.00
2022-12-13T18:26:24.687Z,62.80
2022-12-13T18:28:51.828Z,63.00
2022-12-13T18:31:22.423Z,62.80
2022-12-13T18:33:51.204Z,62.70
2022-12-13T18:36:19.553Z,63.50
2022-12-13T18:38:46.324Z,63.90
2022-12-13T18:41:18.616Z,64.00
2022-12-13T18:43:45.773Z,64.50
2022-12-13T18:46:13.861Z,64.30
2022-12-13T18:48:41.183Z,63.20
2022-12-13T18:51:09.678Z,63.60
2022-12-13T18:53:40.699Z,63.70
2022-12-13T18:56:18.781Z,63.60
2022-12-13T18:58:50.202Z,63.70
2022-12-13T19:01:18.389Z,64.10
2022-12-13T19:03:47.207Z,63.70
2022-12-13T19:06:17.243Z,62.40
2022-12-13T19:08:46.692Z,62.30
2022-12-13T19:11:13.438Z,62.80
2022-12-13T19:13:41.148Z,62.70
2022-12-13T19:16:10.767Z,62.50
2022-12-13T19:18:37.826Z,62.40
2022-12-13T19:21:08.261Z,62.60
2022-12-13T19:23:35.608Z,63.00
2022-12-13T19:26:07.772Z,63.20
2022-12-13T19:28:35.142Z,63.50
2022-12-13T19:31:06.537Z,63.20
2022-12-13T19:33:33.801Z,63.40
2022-12-13T19:36:01.691Z,63.00
2022-12-13T19:38:28.575Z,63.00
2022-12-13T19:40:55.522Z,63.40
2022-12-13T19:43:22.472Z,62.80
2022-12-13T19:45:49.370Z,62.60
2022-12-13T19:48:17.006Z,61.40
2022-12-13T19:50:44.524Z,61.20
2022-12-13T19:53:12.033Z,60.90
2022-12-13T19:55:44.423Z,60.20
2022-12-13T19:58:11.637Z,60.00
2022-12-13T20:00:38.546Z,60.10
2022-12-13T20:03:06.187Z,59.70
2022-12-13T20:05:33.925Z,59.10
2022-12-13T20:08:00.894Z,58.70
2022-12-13T20:10:28.741Z,58.70
2022-12-13T20:12:55.620Z,58.00
2022-12-13T20:15:22.668Z,58.20
2022-12-13T20:17:51.796Z,58.60
2022-12-13T20:20:19.543Z,58.90
2022-12-13T20:22:48.428Z,59.30
2022-12-13T20:25:15.676Z,60.00
2022-12-13T20:27:44.228Z,59.80
2022-12-13T20:30:11.557Z,60.10
2022-12-13T20:32:38.426Z,60.30
2022-12-13T20:35:05.665Z,60.40
2022-12-13T20:37:32.520Z,60.00
2022-12-13T20:39:59.833Z,59.40
2022-12-13T20:42:27.060Z,59.60
2022-12-13T20:44:53.937Z,59.30
2022-12-13T20:47:20.737Z,59.00
2022-12-13T20:49:49.708Z,59.30
2022-12-13T20:52:17.750Z,59.60
2022-12-13T20:54:44.886Z,59.70
2022-12-13T20:57:11.748Z,59.50
2022-12-13T20:59:38.582Z,59.60
2022-12-13T21:02:05.580Z,59.30
2022-12-13T21:04:33.802Z,59.40
2022-12-13T21:07:02.612Z,59.90
2022-12-13T21:09:29.648Z,60.00
2022-12-13T21:11:57.844Z,60.40
2022-12-13T21:14:26.822Z,60.10
2022-12-13T21:16:55.182Z,60.00
2022-12-13T21:19:24.384Z,60.00
2022-12-13T21:21:52.874Z,60.00
2022-12-13T21:24:21.980Z,60.40
2022-12-13T21:26:49.367Z,60.70
2022-12-13T21:29:16.523Z,60.90
2022-12-13T21:31:50.364Z,61.30
2022-12-13T21:34:18.811Z,60.50
2022-12-13T21:36:48.167Z,60.20
2022-12-13T21:39:17.569Z,60.20
2022-12-13T21:41:44.976Z,60.40
2022-12-13T21:44:14.051Z,59.80
2022-12-13T21:47:10.651Z,60.30
2022-12-13T21:49:29.194Z,60.00
2022-12-13T21:51:56.155Z,59.70
2022-12-13T21:54:23.085Z,59.90
2022-12-13T21:57:08.851Z,59.30
2022-12-13T21:59:36.035Z,58.80
2022-12-13T22:02:15.236Z,58.10
2022-12-13T22:04:51.222Z,58.20
2022-12-13T22:07:20.717Z,58.30
2022-12-13T22:09:48.793Z,58.40
2022-12-13T22:12:34.602Z,58.10
2022-12-13T22:15:03.275Z,57.90
2022-12-13T22:17:35.683Z,58.10
2022-12-13T22:20:07.069Z,57.80
2022-12-13T22:22:34.565Z,58.00
2022-12-13T22:25:01.452Z,58.30
2022-12-13T22:27:28.640Z,58.00
2022-12-13T22:29:57.457Z,57.80
2022-12-13T22:32:27.052Z,57.90
2022-12-13T22:34:55.637Z,58.00
2022-12-13T22:37:26.859Z,57.80
2022-12-13T22:39:54.425Z,57.70
2022-12-13T22:42:24.441Z,58.00
2022-12-13T22:44:51.638Z,57.30
2022-12-13T22:47:21.985Z,57.40
2022-12-13T22:49:51.764Z,57.60
2022-12-13T22:52:19.235Z,59.00
2022-12-13T22:54:46.889Z,58.40
2022-12-13T22:57:14.570Z,58.90
2022-12-13T23:02:23.676Z,59.40
2022-12-13T23:04:51.139Z,58.80
2022-12-13T23:07:18.688Z,58.20
2022-12-13T23:09:46.982Z,58.40
2022-12-13T23:12:33.822Z,58.90
2022-12-13T23:15:00.719Z,59.30
2022-12-13T23:17:27.528Z,59.60
2022-12-13T23:19:54.360Z,59.20
2022-12-13T23:22:23.747Z,58.60
2022-12-13T23:24:51.653Z,59.70
2022-12-13T23:27:21.681Z,59.90
2022-12-13T23:29:49.041Z,60.60
2022-12-13T23:32:16.378Z,61.00
2022-12-13T23:34:43.148Z,61.50
2022-12-13T23:37:09.885Z,60.90
2022-12-13T23:39:36.604Z,60.90
2022-12-13T23:42:03.418Z,60.90
2022-12-13T23:44:30.181Z,60.80
2022-12-13T23:46:56.924Z,60.60
2022-12-13T23:49:23.823Z,59.80
2022-12-13T23:51:50.599Z,59.90
2022-12-13T23:54:19.507Z,59.80
2022-12-13T23:56:46.858Z,60.20
2022-12-13T23:59:13.859Z,59.70
